sensor_id;sensor_type;location;lat;lon;timestamp;pressure;altitude;pressure_sealevel;temperature;humidity
74403;BME280;62837;51.082;13.744;2024-01-27T00:00:54;101582.67;;;5.18;70.87
74403;BME280;62837;51.082;13.744;2024-01-27T00:03:25;101583.95;;;5.16;70.84
74403;BME280;62837;51.082;13.744;2024-01-27T00:05:56;101584.98;;;5.14;71.03
74403;BME280;62837;51.082;13.744;2024-01-27T00:08:27;101586.97;;;5.11;71.12
74403;BME280;62837;51.082;13.744;2024-01-27T00:10:58;101588.27;;;5.10;71.36
74403;BME280;62837;51.082;13.744;2024-01-27T00:13:28;101589.98;;;5.10;71.81
74403;BME280;62837;51.082;13.744;2024-01-27T00:15:59;101592.34;;;5.12;71.55
74403;BME280;62837;51.082;13.744;2024-01-27T00:18:30;101590.90;;;5.10;71.40
74403;BME280;62837;51.082;13.744;2024-01-27T00:21:01;101598.25;;;5.08;71.28
74403;BME280;62837;51.082;13.744;2024-01-27T00:23:32;101591.50;;;5.04;71.49
74403;BME280;62837;51.082;13.744;2024-01-27T00:26:04;101590.84;;;5.01;71.64
74403;BME280;62837;51.082;13.744;2024-01-27T00:28:35;101590.02;;;5.00;71.99
74403;BME280;62837;51.082;13.744;2024-01-27T00:31:06;101594.39;;;5.00;72.19
74403;BME280;62837;51.082;13.744;2024-01-27T00:33:36;101597.89;;;5.01;72.23
74403;BME280;62837;51.082;13.744;2024-01-27T00:36:08;101601.02;;;5.01;72.34
74403;BME280;62837;51.082;13.744;2024-01-27T00:38:39;101601.83;;;4.97;72.41
74403;BME280;62837;51.082;13.744;2024-01-27T00:41:15;101605.69;;;4.94;72.45
74403;BME280;62837;51.082;13.744;2024-01-27T00:43:46;101610.68;;;4.91;72.84
74403;BME280;62837;51.082;13.744;2024-01-27T00:46:17;101616.64;;;4.88;72.74
74403;BME280;62837;51.082;13.744;2024-01-27T00:48:48;101623.13;;;4.87;73.03
74403;BME280;62837;51.082;13.744;2024-01-27T00:51:19;101625.20;;;4.89;73.03
74403;BME280;62837;51.082;13.744;2024-01-27T00:53:50;101627.27;;;4.90;72.88
74403;BME280;62837;51.082;13.744;2024-01-27T00:56:21;101630.58;;;4.90;73.17
74403;BME280;62837;51.082;13.744;2024-01-27T00:58:52;101633.59;;;4.92;73.32
74403;BME280;62837;51.082;13.744;2024-01-27T01:01:23;101637.61;;;4.92;73.30
74403;BME280;62837;51.082;13.744;2024-01-27T01:03:54;101638.61;;;4.91;73.41
74403;BME280;62837;51.082;13.744;2024-01-27T01:06:25;101644.95;;;4.90;73.13
74403;BME280;62837;51.082;13.744;2024-01-27T01:08:56;101653.17;;;4.90;73.27
74403;BME280;62837;51.082;13.744;2024-01-27T01:11:27;101655.55;;;4.89;72.93
74403;BME280;62837;51.082;13.744;2024-01-27T01:13:58;101656.36;;;4.86;72.76
74403;BME280;62837;51.082;13.744;2024-01-27T01:16:29;101659.58;;;4.99;78.65
74403;BME280;62837;51.082;13.744;2024-01-27T01:19:00;101653.13;;;5.45;80.42
74403;BME280;62837;51.082;13.744;2024-01-27T01:21:31;101655.23;;;5.86;76.38
74403;BME280;62837;51.082;13.744;2024-01-27T01:24:02;101656.99;;;6.21;77.05
74403;BME280;62837;51.082;13.744;2024-01-27T01:26:33;101655.70;;;6.34;71.29
74403;BME280;62837;51.082;13.744;2024-01-27T01:29:03;101663.43;;;6.15;70.40
74403;BME280;62837;51.082;13.744;2024-01-27T01:31:34;101660.21;;;5.92;69.94
74403;BME280;62837;51.082;13.744;2024-01-27T01:34:05;101665.84;;;5.71;70.23
74403;BME280;62837;51.082;13.744;2024-01-27T01:36:36;101670.38;;;5.54;70.43
74403;BME280;62837;51.082;13.744;2024-01-27T01:39:09;101676.73;;;5.40;70.46
74403;BME280;62837;51.082;13.744;2024-01-27T01:41:41;101678.81;;;5.29;71.05
74403;BME280;62837;51.082;13.744;2024-01-27T01:44:12;101674.90;;;5.22;70.85
74403;BME280;62837;51.082;13.744;2024-01-27T01:46:42;101675.13;;;5.15;71.01
74403;BME280;62837;51.082;13.744;2024-01-27T01:49:13;101674.77;;;5.10;71.36
74403;BME280;62837;51.082;13.744;2024-01-27T01:51:45;101672.23;;;5.02;71.51
74403;BME280;62837;51.082;13.744;2024-01-27T01:54:17;101673.92;;;4.99;71.54
74403;BME280;62837;51.082;13.744;2024-01-27T01:56:48;101677.17;;;4.97;71.64
74403;BME280;62837;51.082;13.744;2024-01-27T01:59:19;101680.33;;;4.92;71.51
74403;BME280;62837;51.082;13.744;2024-01-27T02:01:51;101684.08;;;4.86;71.54
74403;BME280;62837;51.082;13.744;2024-01-27T02:04:22;101685.73;;;4.80;71.77
74403;BME280;62837;51.082;13.744;2024-01-27T02:06:53;101680.81;;;4.76;71.65
74403;BME280;62837;51.082;13.744;2024-01-27T02:09:23;101679.21;;;4.74;71.76
74403;BME280;62837;51.082;13.744;2024-01-27T02:11:55;101684.38;;;4.72;71.95
74403;BME280;62837;51.082;13.744;2024-01-27T02:14:26;101684.92;;;4.71;72.08
74403;BME280;62837;51.082;13.744;2024-01-27T02:16:57;101688.34;;;4.69;71.97
74403;BME280;62837;51.082;13.744;2024-01-27T02:19:28;101688.75;;;4.69;72.29
74403;BME280;62837;51.082;13.744;2024-01-27T02:21:59;101694.31;;;4.67;72.03
74403;BME280;62837;51.082;13.744;2024-01-27T02:24:30;101692.82;;;4.63;71.95
74403;BME280;62837;51.082;13.744;2024-01-27T02:27:01;101691.09;;;4.59;72.13
74403;BME280;62837;51.082;13.744;2024-01-27T02:29:31;101689.23;;;4.57;71.77
74403;BME280;62837;51.082;13.744;2024-01-27T02:32:03;101688.46;;;4.54;71.95
74403;BME280;62837;51.082;13.744;2024-01-27T02:34:33;101685.98;;;4.52;71.84
74403;BME280;62837;51.082;13.744;2024-01-27T02:37:05;101683.70;;;4.50;71.53
74403;BME280;62837;51.082;13.744;2024-01-27T02:39:35;101685.91;;;4.48;71.37
74403;BME280;62837;51.082;13.744;2024-01-27T02:42:07;101683.63;;;4.46;71.98
74403;BME280;62837;51.082;13.744;2024-01-27T02:44:38;101687.00;;;4.45;71.65
74403;BME280;62837;51.082;13.744;2024-01-27T02:47:09;101691.91;;;4.44;71.78
74403;BME280;62837;51.082;13.744;2024-01-27T02:49:39;101699.95;;;4.42;71.73
74403;BME280;62837;51.082;13.744;2024-01-27T02:52:10;101699.55;;;4.41;71.64
74403;BME280;62837;51.082;13.744;2024-01-27T02:54:44;101698.47;;;4.39;71.64
74403;BME280;62837;51.082;13.744;2024-01-27T02:57:15;101700.10;;;4.36;71.46
74403;BME280;62837;51.082;13.744;2024-01-27T02:59:48;101702.64;;;4.35;71.96
74403;BME280;62837;51.082;13.744;2024-01-27T03:02:19;101709.81;;;4.36;71.88
74403;BME280;62837;51.082;13.744;2024-01-27T03:04:49;101717.77;;;4.37;71.92
74403;BME280;62837;51.082;13.744;2024-01-27T03:07:20;101718.08;;;4.38;71.86
74403;BME280;62837;51.082;13.744;2024-01-27T03:09:51;101717.16;;;4.37;71.86
74403;BME280;62837;51.082;13.744;2024-01-27T03:12:22;101726.35;;;4.32;71.57
74403;BME280;62837;51.082;13.744;2024-01-27T03:14:53;101730.83;;;4.30;71.43
74403;BME280;62837;51.082;13.744;2024-01-27T03:17:24;101736.09;;;4.28;71.68
74403;BME280;62837;51.082;13.744;2024-01-27T03:19:55;101742.17;;;4.26;71.71
74403;BME280;62837;51.082;13.744;2024-01-27T03:22:26;101748.44;;;4.25;71.73
74403;BME280;62837;51.082;13.744;2024-01-27T03:24:57;101749.52;;;4.27;71.19
74403;BME280;62837;51.082;13.744;2024-01-27T03:27:28;101752.17;;;4.29;71.27
74403;BME280;62837;51.082;13.744;2024-01-27T03:30:01;101753.09;;;4.30;71.29
74403;BME280;62837;51.082;13.744;2024-01-27T03:32:33;101759.62;;;4.30;71.06
74403;BME280;62837;51.082;13.744;2024-01-27T03:35:05;101749.91;;;4.31;71.08
74403;BME280;62837;51.082;13.744;2024-01-27T03:37:36;101756.36;;;4.33;71.27
74403;BME280;62837;51.082;13.744;2024-01-27T03:40:09;101759.73;;;4.34;70.76
74403;BME280;62837;51.082;13.744;2024-01-27T03:42:40;101761.82;;;4.35;70.92
74403;BME280;62837;51.082;13.744;2024-01-27T03:45:11;101759.61;;;4.35;70.97
74403;BME280;62837;51.082;13.744;2024-01-27T03:47:42;101760.55;;;4.36;70.74
74403;BME280;62837;51.082;13.744;2024-01-27T03:50:16;101764.05;;;4.36;70.50
74403;BME280;62837;51.082;13.744;2024-01-27T03:52:46;101766.06;;;4.36;70.27
74403;BME280;62837;51.082;13.744;2024-01-27T03:55:18;101767.91;;;4.35;70.42
74403;BME280;62837;51.082;13.744;2024-01-27T03:57:48;101769.71;;;4.36;70.45
74403;BME280;62837;51.082;13.744;2024-01-27T04:00:20;101767.88;;;4.33;69.91
74403;BME280;62837;51.082;13.744;2024-01-27T04:02:51;101774.73;;;4.30;70.22
74403;BME280;62837;51.082;13.744;2024-01-27T04:05:22;101770.73;;;4.28;69.98
74403;BME280;62837;51.082;13.744;2024-01-27T04:07:53;101776.75;;;4.27;70.04
74403;BME280;62837;51.082;13.744;2024-01-27T04:10:24;101776.80;;;4.26;69.75
74403;BME280;62837;51.082;13.744;2024-01-27T04:12:55;101779.20;;;4.26;70.17
74403;BME280;62837;51.082;13.744;2024-01-27T04:15:26;101783.25;;;4.26;69.80
74403;BME280;62837;51.082;13.744;2024-01-27T04:17:57;101782.16;;;4.26;69.98
74403;BME280;62837;51.082;13.744;2024-01-27T04:20:28;101780.95;;;4.24;69.49
74403;BME280;62837;51.082;13.744;2024-01-27T04:22:59;101784.72;;;4.24;69.50
74403;BME280;62837;51.082;13.744;2024-01-27T04:25:30;101786.30;;;4.23;69.57
74403;BME280;62837;51.082;13.744;2024-01-27T04:28:01;101784.38;;;4.24;69.73
74403;BME280;62837;51.082;13.744;2024-01-27T04:30:32;101788.77;;;4.25;69.45
74403;BME280;62837;51.082;13.744;2024-01-27T04:33:04;101787.30;;;4.25;69.28
74403;BME280;62837;51.082;13.744;2024-01-27T04:35:37;101789.74;;;4.26;69.38
74403;BME280;62837;51.082;13.744;2024-01-27T04:38:09;101792.88;;;4.28;69.30
74403;BME280;62837;51.082;13.744;2024-01-27T04:40:40;101794.52;;;4.28;69.04
74403;BME280;62837;51.082;13.744;2024-01-27T04:43:12;101802.67;;;4.27;69.06
74403;BME280;62837;51.082;13.744;2024-01-27T04:45:44;101806.02;;;4.27;68.73
74403;BME280;62837;51.082;13.744;2024-01-27T04:48:15;101806.22;;;4.26;69.26
74403;BME280;62837;51.082;13.744;2024-01-27T04:50:47;101805.31;;;4.28;69.19
74403;BME280;62837;51.082;13.744;2024-01-27T04:53:18;101802.10;;;4.28;68.80
74403;BME280;62837;51.082;13.744;2024-01-27T04:55:49;101797.87;;;4.23;68.66
74403;BME280;62837;51.082;13.744;2024-01-27T04:58:20;101797.88;;;4.19;68.82
74403;BME280;62837;51.082;13.744;2024-01-27T05:00:50;101804.65;;;4.14;69.12
74403;BME280;62837;51.082;13.744;2024-01-27T05:03:21;101807.13;;;4.10;69.15
74403;BME280;62837;51.082;13.744;2024-01-27T05:05:52;101817.16;;;4.08;69.11
74403;BME280;62837;51.082;13.744;2024-01-27T05:08:23;101826.66;;;4.09;69.26
74403;BME280;62837;51.082;13.744;2024-01-27T05:10:54;101827.37;;;4.11;69.72
74403;BME280;62837;51.082;13.744;2024-01-27T05:13:27;101825.91;;;4.12;69.66
74403;BME280;62837;51.082;13.744;2024-01-27T05:15:58;101823.83;;;4.13;69.40
74403;BME280;62837;51.082;13.744;2024-01-27T05:18:29;101835.73;;;4.15;69.69
74403;BME280;62837;51.082;13.744;2024-01-27T05:21:00;101836.47;;;4.18;70.05
74403;BME280;62837;51.082;13.744;2024-01-27T05:23:31;101843.15;;;4.21;69.76
74403;BME280;62837;51.082;13.744;2024-01-27T05:26:02;101843.73;;;4.21;69.10
74403;BME280;62837;51.082;13.744;2024-01-27T05:28:35;101841.01;;;4.21;69.92
74403;BME280;62837;51.082;13.744;2024-01-27T05:31:08;101844.58;;;4.23;70.02
74403;BME280;62837;51.082;13.744;2024-01-27T05:33:39;101847.20;;;4.24;69.81
74403;BME280;62837;51.082;13.744;2024-01-27T05:36:10;101852.95;;;4.24;69.67
74403;BME280;62837;51.082;13.744;2024-01-27T05:38:41;101850.02;;;4.24;69.87
74403;BME280;62837;51.082;13.744;2024-01-27T05:41:11;101852.98;;;4.25;69.94
74403;BME280;62837;51.082;13.744;2024-01-27T05:43:42;101859.27;;;4.27;69.79
74403;BME280;62837;51.082;13.744;2024-01-27T05:46:13;101860.83;;;4.28;69.97
74403;BME280;62837;51.082;13.744;2024-01-27T05:48:44;101862.73;;;4.30;69.91
74403;BME280;62837;51.082;13.744;2024-01-27T05:51:15;101864.55;;;4.30;69.65
74403;BME280;62837;51.082;13.744;2024-01-27T05:53:46;101869.73;;;4.29;70.25
74403;BME280;62837;51.082;13.744;2024-01-27T05:56:17;101875.85;;;4.30;70.05
74403;BME280;62837;51.082;13.744;2024-01-27T05:58:50;101879.13;;;4.33;70.16
74403;BME280;62837;51.082;13.744;2024-01-27T06:01:21;101876.90;;;4.37;69.92
74403;BME280;62837;51.082;13.744;2024-01-27T06:03:52;101874.91;;;4.38;70.05
74403;BME280;62837;51.082;13.744;2024-01-27T06:06:23;101876.10;;;4.34;69.68
74403;BME280;62837;51.082;13.744;2024-01-27T06:08:54;101878.20;;;4.30;69.84
74403;BME280;62837;51.082;13.744;2024-01-27T06:11:28;101877.95;;;4.30;69.94
74403;BME280;62837;51.082;13.744;2024-01-27T06:13:58;101883.66;;;4.28;69.99
74403;BME280;62837;51.082;13.744;2024-01-27T06:16:29;101881.36;;;4.26;70.26
74403;BME280;62837;51.082;13.744;2024-01-27T06:19:00;101879.59;;;4.26;70.10
74403;BME280;62837;51.082;13.744;2024-01-27T06:21:31;101884.02;;;4.27;70.51
74403;BME280;62837;51.082;13.744;2024-01-27T06:24:02;101886.98;;;4.31;70.65
74403;BME280;62837;51.082;13.744;2024-01-27T06:26:33;101889.65;;;4.33;70.03
74403;BME280;62837;51.082;13.744;2024-01-27T06:29:04;101897.29;;;4.36;70.31
74403;BME280;62837;51.082;13.744;2024-01-27T06:31:35;101894.94;;;4.37;70.08
74403;BME280;62837;51.082;13.744;2024-01-27T06:34:05;101902.77;;;4.37;69.98
74403;BME280;62837;51.082;13.744;2024-01-27T06:36:36;101908.89;;;4.38;70.62
74403;BME280;62837;51.082;13.744;2024-01-27T06:39:07;101915.48;;;4.43;70.38
74403;BME280;62837;51.082;13.744;2024-01-27T06:41:39;101909.56;;;4.47;70.57
74403;BME280;62837;51.082;13.744;2024-01-27T06:44:10;101911.37;;;4.50;70.43
74403;BME280;62837;51.082;13.744;2024-01-27T06:46:40;101922.50;;;4.50;70.14
74403;BME280;62837;51.082;13.744;2024-01-27T06:49:12;101921.55;;;4.49;70.29
74403;BME280;62837;51.082;13.744;2024-01-27T06:51:44;101920.23;;;4.46;69.69
74403;BME280;62837;51.082;13.744;2024-01-27T06:54:15;101921.59;;;4.42;69.90
74403;BME280;62837;51.082;13.744;2024-01-27T06:56:46;101926.22;;;4.40;70.40
74403;BME280;62837;51.082;13.744;2024-01-27T06:59:17;101925.35;;;4.38;70.00
74403;BME280;62837;51.082;13.744;2024-01-27T07:01:48;101932.14;;;4.36;70.48
74403;BME280;62837;51.082;13.744;2024-01-27T07:04:19;101939.84;;;4.35;70.41
74403;BME280;62837;51.082;13.744;2024-01-27T07:06:50;101946.23;;;4.35;70.67
74403;BME280;62837;51.082;13.744;2024-01-27T07:09:21;101952.09;;;4.36;70.79
74403;BME280;62837;51.082;13.744;2024-01-27T07:11:52;101949.83;;;4.39;70.60
74403;BME280;62837;51.082;13.744;2024-01-27T07:14:23;101956.17;;;4.41;70.77
74403;BME280;62837;51.082;13.744;2024-01-27T07:16:54;101967.81;;;4.43;70.63
74403;BME280;62837;51.082;13.744;2024-01-27T07:19:25;101975.00;;;4.45;70.74
74403;BME280;62837;51.082;13.744;2024-01-27T07:21:56;101979.23;;;4.46;70.63
74403;BME280;62837;51.082;13.744;2024-01-27T07:24:27;101983.65;;;4.47;70.25
74403;BME280;62837;51.082;13.744;2024-01-27T07:26:59;101983.80;;;4.49;70.76
74403;BME280;62837;51.082;13.744;2024-01-27T07:29:30;101985.70;;;4.53;70.55
74403;BME280;62837;51.082;13.744;2024-01-27T07:32:01;101988.86;;;4.55;72.45
74403;BME280;62837;51.082;13.744;2024-01-27T07:34:32;101985.07;;;4.93;78.20
74403;BME280;62837;51.082;13.744;2024-01-27T07:37:03;101981.58;;;5.38;74.83
74403;BME280;62837;51.082;13.744;2024-01-27T07:39:34;101985.56;;;5.72;72.97
74403;BME280;62837;51.082;13.744;2024-01-27T07:42:06;101987.09;;;5.92;72.17
74403;BME280;62837;51.082;13.744;2024-01-27T07:44:37;101986.95;;;6.14;71.05
74403;BME280;62837;51.082;13.744;2024-01-27T07:47:07;101980.83;;;6.30;69.66
74403;BME280;62837;51.082;13.744;2024-01-27T07:49:39;101978.80;;;6.40;69.02
74403;BME280;62837;51.082;13.744;2024-01-27T07:52:10;101970.70;;;6.45;67.83
74403;BME280;62837;51.082;13.744;2024-01-27T07:54:41;101974.29;;;6.40;67.06
74403;BME280;62837;51.082;13.744;2024-01-27T07:57:11;101976.81;;;6.40;68.15
74403;BME280;62837;51.082;13.744;2024-01-27T07:59:42;101981.47;;;6.46;67.57
74403;BME280;62837;51.082;13.744;2024-01-27T08:02:13;101986.65;;;6.33;66.32
74403;BME280;62837;51.082;13.744;2024-01-27T08:04:44;101990.66;;;6.17;66.57
74403;BME280;62837;51.082;13.744;2024-01-27T08:07:15;101998.61;;;6.02;66.23
74403;BME280;62837;51.082;13.744;2024-01-27T08:09:46;102000.91;;;5.83;66.48
74403;BME280;62837;51.082;13.744;2024-01-27T08:12:17;102006.74;;;5.70;67.02
74403;BME280;62837;51.082;13.744;2024-01-27T08:14:48;101999.49;;;5.59;67.50
74403;BME280;62837;51.082;13.744;2024-01-27T08:17:19;101999.53;;;5.48;67.71
74403;BME280;62837;51.082;13.744;2024-01-27T08:19:50;102003.25;;;5.39;67.92
74403;BME280;62837;51.082;13.744;2024-01-27T08:22:22;102007.16;;;5.33;67.77
74403;BME280;62837;51.082;13.744;2024-01-27T08:24:53;102009.05;;;5.27;67.97
74403;BME280;62837;51.082;13.744;2024-01-27T08:27:24;102017.02;;;5.25;67.92
74403;BME280;62837;51.082;13.744;2024-01-27T08:29:55;102016.45;;;5.20;68.07
74403;BME280;62837;51.082;13.744;2024-01-27T08:32:27;102017.80;;;5.15;68.25
74403;BME280;62837;51.082;13.744;2024-01-27T08:34:58;102021.71;;;5.14;68.25
74403;BME280;62837;51.082;13.744;2024-01-27T08:37:29;102025.27;;;5.13;68.46
74403;BME280;62837;51.082;13.744;2024-01-27T08:40:08;102029.60;;;5.11;68.53
74403;BME280;62837;51.082;13.744;2024-01-27T08:42:40;102036.61;;;5.07;68.87
74403;BME280;62837;51.082;13.744;2024-01-27T08:45:11;102038.90;;;5.06;68.91
74403;BME280;62837;51.082;13.744;2024-01-27T08:47:42;102038.42;;;5.08;68.86
74403;BME280;62837;51.082;13.744;2024-01-27T08:50:14;102042.59;;;5.06;68.88
74403;BME280;62837;51.082;13.744;2024-01-27T08:52:44;102051.27;;;5.06;69.10
74403;BME280;62837;51.082;13.744;2024-01-27T08:55:16;102059.08;;;5.08;68.87
74403;BME280;62837;51.082;13.744;2024-01-27T08:57:49;102063.10;;;5.09;69.33
74403;BME280;62837;51.082;13.744;2024-01-27T09:00:21;102072.63;;;5.10;69.14
74403;BME280;62837;51.082;13.744;2024-01-27T09:02:54;102072.64;;;5.10;69.11
74403;BME280;62837;51.082;13.744;2024-01-27T09:05:26;102083.98;;;5.09;69.13
74403;BME280;62837;51.082;13.744;2024-01-27T09:07:58;102085.02;;;5.10;69.14
74403;BME280;62837;51.082;13.744;2024-01-27T09:10:29;102086.84;;;5.11;69.04
74403;BME280;62837;51.082;13.744;2024-01-27T09:13:00;102086.00;;;5.10;68.98
74403;BME280;62837;51.082;13.744;2024-01-27T09:15:32;102086.54;;;5.10;69.01
74403;BME280;62837;51.082;13.744;2024-01-27T09:18:04;102087.27;;;5.09;68.97
74403;BME280;62837;51.082;13.744;2024-01-27T09:20:35;102088.69;;;5.09;69.00
74403;BME280;62837;51.082;13.744;2024-01-27T09:23:07;102093.85;;;5.13;69.22
74403;BME280;62837;51.082;13.744;2024-01-27T09:25:38;102093.48;;;5.18;69.16
74403;BME280;62837;51.082;13.744;2024-01-27T09:28:10;102096.41;;;5.22;69.23
74403;BME280;62837;51.082;13.744;2024-01-27T09:30:41;102100.92;;;5.29;69.02
74403;BME280;62837;51.082;13.744;2024-01-27T09:33:13;102101.07;;;5.35;68.87
74403;BME280;62837;51.082;13.744;2024-01-27T09:35:45;102095.21;;;5.38;68.84
74403;BME280;62837;51.082;13.744;2024-01-27T09:38:15;102097.35;;;5.43;68.78
74403;BME280;62837;51.082;13.744;2024-01-27T09:40:47;102094.45;;;5.44;68.43
74403;BME280;62837;51.082;13.744;2024-01-27T09:43:19;102089.42;;;5.47;68.55
74403;BME280;62837;51.082;13.744;2024-01-27T09:45:52;102094.83;;;5.47;68.34
74403;BME280;62837;51.082;13.744;2024-01-27T09:48:26;102097.70;;;5.49;68.45
74403;BME280;62837;51.082;13.744;2024-01-27T09:50:59;102097.70;;;5.50;68.35
74403;BME280;62837;51.082;13.744;2024-01-27T09:53:32;102096.88;;;5.51;68.38
74403;BME280;62837;51.082;13.744;2024-01-27T09:56:04;102096.05;;;5.53;68.39
74403;BME280;62837;51.082;13.744;2024-01-27T09:58:37;102101.44;;;5.54;68.28
74403;BME280;62837;51.082;13.744;2024-01-27T10:01:09;102098.61;;;5.55;68.47
74403;BME280;62837;51.082;13.744;2024-01-27T10:03:42;102092.77;;;5.59;68.26
74403;BME280;62837;51.082;13.744;2024-01-27T10:06:13;102095.70;;;5.64;68.16
74403;BME280;62837;51.082;13.744;2024-01-27T10:08:51;102098.41;;;5.68;68.13
74403;BME280;62837;51.082;13.744;2024-01-27T10:11:23;102100.36;;;5.72;68.35
74403;BME280;62837;51.082;13.744;2024-01-27T10:13:58;102097.84;;;5.77;67.90
74403;BME280;62837;51.082;13.744;2024-01-27T10:16:41;102099.27;;;5.77;68.16
74403;BME280;62837;51.082;13.744;2024-01-27T10:19:16;102093.95;;;5.83;68.61
74403;BME280;62837;51.082;13.744;2024-01-27T10:21:59;102093.55;;;5.88;68.08
74403;BME280;62837;51.082;13.744;2024-01-27T10:24:32;102091.59;;;5.92;67.90
74403;BME280;62837;51.082;13.744;2024-01-27T10:27:05;102090.30;;;5.95;67.75
74403;BME280;62837;51.082;13.744;2024-01-27T10:29:37;102084.45;;;5.98;67.87
74403;BME280;62837;51.082;13.744;2024-01-27T10:32:11;102085.21;;;6.01;67.65
74403;BME280;62837;51.082;13.744;2024-01-27T10:34:42;102087.27;;;6.02;67.63
74403;BME280;62837;51.082;13.744;2024-01-27T10:37:14;102085.98;;;6.05;67.47
74403;BME280;62837;51.082;13.744;2024-01-27T10:39:45;102084.55;;;6.05;67.11
74403;BME280;62837;51.082;13.744;2024-01-27T10:42:18;102084.82;;;6.07;67.10
74403;BME280;62837;51.082;13.744;2024-01-27T10:44:49;102087.04;;;6.08;67.03
74403;BME280;62837;51.082;13.744;2024-01-27T10:47:22;102089.29;;;6.12;66.95
74403;BME280;62837;51.082;13.744;2024-01-27T10:49:56;102090.32;;;6.14;66.93
74403;BME280;62837;51.082;13.744;2024-01-27T10:52:30;102097.04;;;6.17;67.05
74403;BME280;62837;51.082;13.744;2024-01-27T10:55:05;102099.77;;;6.18;66.85
74403;BME280;62837;51.082;13.744;2024-01-27T10:57:37;102099.58;;;6.19;66.97
74403;BME280;62837;51.082;13.744;2024-01-27T11:00:12;102100.98;;;6.19;66.90
74403;BME280;62837;51.082;13.744;2024-01-27T11:02:45;102100.75;;;6.18;66.80
74403;BME280;62837;51.082;13.744;2024-01-27T11:05:22;102100.77;;;6.16;66.60
74403;BME280;62837;51.082;13.744;2024-01-27T11:07:55;102099.36;;;6.15;66.77
74403;BME280;62837;51.082;13.744;2024-01-27T11:10:27;102099.95;;;6.11;66.75
74403;BME280;62837;51.082;13.744;2024-01-27T11:13:05;102102.75;;;6.11;66.89
74403;BME280;62837;51.082;13.744;2024-01-27T11:15:37;102105.38;;;6.12;67.03
74403;BME280;62837;51.082;13.744;2024-01-27T11:18:08;102111.92;;;6.15;67.15
74403;BME280;62837;51.082;13.744;2024-01-27T11:20:43;102112.96;;;6.19;67.13
74403;BME280;62837;51.082;13.744;2024-01-27T11:23:15;102113.70;;;6.27;67.19
74403;BME280;62837;51.082;13.744;2024-01-27T11:25:45;102113.23;;;6.36;67.04
74403;BME280;62837;51.082;13.744;2024-01-27T11:28:17;102113.75;;;6.50;66.80
74403;BME280;62837;51.082;13.744;2024-01-27T11:30:49;102117.48;;;6.62;66.77
74403;BME280;62837;51.082;13.744;2024-01-27T11:33:24;102116.83;;;6.76;66.41
74403;BME280;62837;51.082;13.744;2024-01-27T11:36:02;102115.38;;;6.86;65.97
74403;BME280;62837;51.082;13.744;2024-01-27T11:38:34;102106.70;;;7.02;65.91
74403;BME280;62837;51.082;13.744;2024-01-27T11:41:05;102103.63;;;7.23;65.39
74403;BME280;62837;51.082;13.744;2024-01-27T11:43:36;102105.10;;;7.40;65.05
74403;BME280;62837;51.082;13.744;2024-01-27T11:46:07;102107.05;;;7.55;64.49
74403;BME280;62837;51.082;13.744;2024-01-27T11:48:43;102103.02;;;7.62;64.05
74403;BME280;62837;51.082;13.744;2024-01-27T11:51:14;102107.15;;;7.61;63.32
74403;BME280;62837;51.082;13.744;2024-01-27T11:53:45;102109.60;;;7.68;63.86
74403;BME280;62837;51.082;13.744;2024-01-27T11:56:17;102112.85;;;7.69;63.39
74403;BME280;62837;51.082;13.744;2024-01-27T11:58:49;102111.58;;;7.72;63.31
74403;BME280;62837;51.082;13.744;2024-01-27T12:01:20;102114.42;;;7.72;63.30
74403;BME280;62837;51.082;13.744;2024-01-27T12:03:51;102112.10;;;7.75;63.19
74403;BME280;62837;51.082;13.744;2024-01-27T12:06:22;102104.32;;;7.76;63.09
74403;BME280;62837;51.082;13.744;2024-01-27T12:08:56;102105.70;;;7.71;63.28
74403;BME280;62837;51.082;13.744;2024-01-27T12:11:27;102108.66;;;7.68;63.27
74403;BME280;62837;51.082;13.744;2024-01-27T12:14:00;102109.54;;;7.66;62.86
74403;BME280;62837;51.082;13.744;2024-01-27T12:16:31;102112.13;;;7.64;62.99
74403;BME280;62837;51.082;13.744;2024-01-27T12:19:02;102108.23;;;7.62;63.05
74403;BME280;62837;51.082;13.744;2024-01-27T12:21:33;102107.91;;;7.58;63.14
74403;BME280;62837;51.082;13.744;2024-01-27T12:24:06;102111.33;;;7.49;63.14
74403;BME280;62837;51.082;13.744;2024-01-27T12:26:50;102108.16;;;7.47;63.40
74403;BME280;62837;51.082;13.744;2024-01-27T12:29:22;102111.79;;;7.44;63.07
74403;BME280;62837;51.082;13.744;2024-01-27T12:31:53;102115.36;;;7.39;63.31
74403;BME280;62837;51.082;13.744;2024-01-27T12:34:24;102120.02;;;7.33;63.36
74403;BME280;62837;51.082;13.744;2024-01-27T12:36:55;102127.63;;;7.32;63.40
74403;BME280;62837;51.082;13.744;2024-01-27T12:39:27;102122.02;;;7.32;63.22
74403;BME280;62837;51.082;13.744;2024-01-27T12:41:58;102121.66;;;7.29;63.02
74403;BME280;62837;51.082;13.744;2024-01-27T12:44:29;102120.56;;;7.37;63.06
74403;BME280;62837;51.082;13.744;2024-01-27T12:47:00;102118.79;;;7.41;62.48
74403;BME280;62837;51.082;13.744;2024-01-27T12:49:32;102128.33;;;7.47;62.51
74403;BME280;62837;51.082;13.744;2024-01-27T12:52:04;102126.17;;;7.55;62.20
74403;BME280;62837;51.082;13.744;2024-01-27T12:54:35;102119.10;;;7.62;62.02
74403;BME280;62837;51.082;13.744;2024-01-27T12:57:06;102119.33;;;7.68;61.44
74403;BME280;62837;51.082;13.744;2024-01-27T12:59:38;102116.71;;;7.73;61.00
74403;BME280;62837;51.082;13.744;2024-01-27T13:02:10;102115.41;;;7.78;61.33
74403;BME280;62837;51.082;13.744;2024-01-27T13:04:41;102116.74;;;7.82;60.73
74403;BME280;62837;51.082;13.744;2024-01-27T13:07:12;102118.25;;;7.85;60.37
74403;BME280;62837;51.082;13.744;2024-01-27T13:09:43;102116.02;;;7.87;60.63
74403;BME280;62837;51.082;13.744;2024-01-27T13:12:14;102119.06;;;7.89;60.86